sensor_id;sensor_type;location;lat;lon;timestamp;P1;durP1;ratioP1;P2;durP2;ratioP2
7929;SDS011;4010;42.698;23.124;2022-11-23T00:01:10;8.70;;;6.63;;
7929;SDS011;4010;42.698;23.124;2022-11-23T00:03:38;9.90;;;5.77;;
7929;SDS011;4010;42.698;23.124;2022-11-23T00:06:05;7.63;;;5.93;;
7929;SDS011;4010;42.698;23.124;2022-11-23T00:08:32;7.03;;;6.30;;
7929;SDS011;4010;42.698;23.124;2022-11-23T00:10:59;8.63;;;5.80;;
7929;SDS011;4010;42.698;23.124;2022-11-23T00:13:26;9.13;;;5.90;;
7929;SDS011;4010;42.698;23.124;2022-11-23T00:15:54;11.90;;;5.97;;
7929;SDS011;4010;42.698;23.124;2022-11-23T00:18:21;8.77;;;5.57;;
7929;SDS011;4010;42.698;23.124;2022-11-23T00:20:47;6.47;;;4.73;;
7929;SDS011;4010;42.698;23.124;2022-11-23T00:23:14;8.73;;;5.37;;
7929;SDS011;4010;42.698;23.124;2022-11-23T00:25:42;12.27;;;5.70;;
7929;SDS011;4010;42.698;23.124;2022-11-23T00:28:10;6.93;;;4.70;;
7929;SDS011;4010;42.698;23.124;2022-11-23T00:30:37;8.83;;;5.70;;
7929;SDS011;4010;42.698;23.124;2022-11-23T00:33:05;9.30;;;5.57;;
7929;SDS011;4010;42.698;23.124;2022-11-23T00:35:32;7.50;;;5.43;;
7929;SDS011;4010;42.698;23.124;2022-11-23T00:37:59;7.30;;;5.60;;
7929;SDS011;4010;42.698;23.124;2022-11-23T00:40:25;4.57;;;3.80;;
7929;SDS011;4010;42.698;23.124;2022-11-23T00:42:52;5.07;;;4.10;;
7929;SDS011;4010;42.698;23.124;2022-11-23T00:45:19;5.67;;;5.03;;
7929;SDS011;4010;42.698;23.124;2022-11-23T00:47:45;5.10;;;3.77;;
7929;SDS011;4010;42.698;23.124;2022-11-23T00:50:14;3.90;;;3.40;;
7929;SDS011;4010;42.698;23.124;2022-11-23T00:52:41;9.77;;;6.00;;
7929;SDS011;4010;42.698;23.124;2022-11-23T00:55:08;6.73;;;5.07;;
7929;SDS011;4010;42.698;23.124;2022-11-23T00:57:34;5.43;;;4.23;;
7929;SDS011;4010;42.698;23.124;2022-11-23T01:00:02;6.50;;;4.60;;
7929;SDS011;4010;42.698;23.124;2022-11-23T01:02:29;5.77;;;4.50;;
7929;SDS011;4010;42.698;23.124;2022-11-23T01:04:56;5.07;;;4.53;;
7929;SDS011;4010;42.698;23.124;2022-11-23T01:07:24;6.53;;;4.37;;
7929;SDS011;4010;42.698;23.124;2022-11-23T01:09:50;6.37;;;4.67;;
7929;SDS011;4010;42.698;23.124;2022-11-23T01:12:17;5.70;;;4.33;;
7929;SDS011;4010;42.698;23.124;2022-11-23T01:14:44;6.67;;;4.80;;
7929;SDS011;4010;42.698;23.124;2022-11-23T01:17:10;8.80;;;5.17;;
7929;SDS011;4010;42.698;23.124;2022-11-23T01:19:37;4.60;;;4.13;;
7929;SDS011;4010;42.698;23.124;2022-11-23T07:31:20;9.90;;;6.87;;
7929;SDS011;4010;42.698;23.124;2022-11-23T07:33:46;6.67;;;6.00;;
7929;SDS011;4010;42.698;23.124;2022-11-23T07:36:13;7.70;;;5.90;;
7929;SDS011;4010;42.698;23.124;2022-11-23T07:38:40;7.83;;;6.10;;
7929;SDS011;4010;42.698;23.124;2022-11-23T07:41:07;9.47;;;7.07;;
7929;SDS011;4010;42.698;23.124;2022-11-23T07:43:33;7.30;;;5.90;;
7929;SDS011;4010;42.698;23.124;2022-11-23T07:46:00;6.53;;;5.57;;
7929;SDS011;4010;42.698;23.124;2022-11-23T07:48:28;7.53;;;6.20;;
7929;SDS011;4010;42.698;23.124;2022-11-23T07:50:55;10.53;;;7.87;;
7929;SDS011;4010;42.698;23.124;2022-11-23T07:53:22;13.30;;;9.70;;
7929;SDS011;4010;42.698;23.124;2022-11-23T07:55:48;9.20;;;7.10;;
7929;SDS011;4010;42.698;23.124;2022-11-23T07:58:15;6.77;;;5.90;;
7929;SDS011;4010;42.698;23.124;2022-11-23T08:00:42;5.00;;;3.40;;
7929;SDS011;4010;42.698;23.124;2022-11-23T08:03:10;4.10;;;3.00;;
7929;SDS011;4010;42.698;23.124;2022-11-23T08:05:40;3.70;;;2.80;;
7929;SDS011;4010;42.698;23.124;2022-11-23T08:08:07;3.83;;;3.13;;
7929;SDS011;4010;42.698;23.124;2022-11-23T08:10:34;3.70;;;2.57;;
7929;SDS011;4010;42.698;23.124;2022-11-23T08:13:02;3.77;;;2.40;;
7929;SDS011;4010;42.698;23.124;2022-11-23T08:15:31;3.97;;;2.73;;
7929;SDS011;4010;42.698;23.124;2022-11-23T08:17:58;4.50;;;2.67;;
7929;SDS011;4010;42.698;23.124;2022-11-23T08:20:27;3.93;;;2.60;;
7929;SDS011;4010;42.698;23.124;2022-11-23T08:22:55;3.20;;;2.03;;
7929;SDS011;4010;42.698;23.124;2022-11-23T08:25:22;5.13;;;2.13;;
7929;SDS011;4010;42.698;23.124;2022-11-23T08:27:53;3.73;;;2.27;;
7929;SDS011;4010;42.698;23.124;2022-11-23T08:30:20;3.80;;;1.87;;
7929;SDS011;4010;42.698;23.124;2022-11-23T08:32:47;1.90;;;1.70;;
7929;SDS011;4010;42.698;23.124;2022-11-23T08:35:13;1.40;;;1.30;;
7929;SDS011;4010;42.698;23.124;2022-11-23T08:37:40;2.53;;;1.20;;
7929;SDS011;4010;42.698;23.124;2022-11-23T08:40:09;1.53;;;1.00;;
7929;SDS011;4010;42.698;23.124;2022-11-23T08:42:36;1.60;;;1.20;;
7929;SDS011;4010;42.698;23.124;2022-11-23T08:45:03;2.70;;;1.20;;
7929;SDS011;4010;42.698;23.124;2022-11-23T08:47:30;1.20;;;1.07;;
7929;SDS011;4010;42.698;23.124;2022-11-23T08:49:57;1.93;;;1.00;;
7929;SDS011;4010;42.698;23.124;2022-11-23T08:52:24;3.87;;;1.10;;
7929;SDS011;4010;42.698;23.124;2022-11-23T08:54:51;1.63;;;1.13;;
7929;SDS011;4010;42.698;23.124;2022-11-23T08:57:19;2.93;;;1.87;;
7929;SDS011;4010;42.698;23.124;2022-11-23T08:59:46;4.53;;;2.43;;
7929;SDS011;4010;42.698;23.124;2022-11-23T09:02:13;2.87;;;0.93;;
7929;SDS011;4010;42.698;23.124;2022-11-23T09:04:40;0.70;;;0.70;;
7929;SDS011;4010;42.698;23.124;2022-11-23T09:07:07;1.33;;;1.00;;
7929;SDS011;4010;42.698;23.124;2022-11-23T09:09:34;2.17;;;0.80;;
7929;SDS011;4010;42.698;23.124;2022-11-23T09:12:01;1.53;;;0.70;;
7929;SDS011;4010;42.698;23.124;2022-11-23T09:14:29;1.00;;;0.80;;
7929;SDS011;4010;42.698;23.124;2022-11-23T09:16:55;1.90;;;0.80;;
7929;SDS011;4010;42.698;23.124;2022-11-23T09:19:22;1.40;;;1.10;;
7929;SDS011;4010;42.698;23.124;2022-11-23T09:21:49;2.00;;;0.70;;
7929;SDS011;4010;42.698;23.124;2022-11-23T09:24:15;1.60;;;0.70;;
7929;SDS011;4010;42.698;23.124;2022-11-23T09:26:42;1.40;;;1.07;;
7929;SDS011;4010;42.698;23.124;2022-11-23T09:29:09;2.70;;;0.80;;
7929;SDS011;4010;42.698;23.124;2022-11-23T09:31:37;2.40;;;0.80;;
7929;SDS011;4010;42.698;23.124;2022-11-23T09:34:04;1.00;;;0.67;;
7929;SDS011;4010;42.698;23.124;2022-11-23T09:36:31;1.40;;;0.50;;
7929;SDS011;4010;42.698;23.124;2022-11-23T09:38:57;1.33;;;0.90;;
7929;SDS011;4010;42.698;23.124;2022-11-23T09:41:35;2.53;;;1.10;;
7929;SDS011;4010;42.698;23.124;2022-11-23T09:44:26;3.43;;;1.00;;
7929;SDS011;4010;42.698;23.124;2022-11-23T09:47:04;1.03;;;0.70;;
7929;SDS011;4010;42.698;23.124;2022-11-23T09:49:41;0.63;;;0.63;;
7929;SDS011;4010;42.698;23.124;2022-11-23T09:52:15;1.73;;;0.70;;
7929;SDS011;4010;42.698;23.124;2022-11-23T09:54:44;0.83;;;0.50;;
7929;SDS011;4010;42.698;23.124;2022-11-23T09:57:14;2.37;;;0.57;;
7929;SDS011;4010;42.698;23.124;2022-11-23T09:59:46;0.40;;;0.40;;
7929;SDS011;4010;42.698;23.124;2022-11-23T10:02:20;0.93;;;0.60;;
7929;SDS011;4010;42.698;23.124;2022-11-23T10:04:49;0.40;;;0.40;;
7929;SDS011;4010;42.698;23.124;2022-11-23T10:07:21;0.83;;;0.70;;
7929;SDS011;4010;42.698;23.124;2022-11-23T10:10:07;0.50;;;0.50;;
7929;SDS011;4010;42.698;23.124;2022-11-23T10:12:45;0.63;;;0.60;;
7929;SDS011;4010;42.698;23.124;2022-11-23T10:15:20;1.97;;;0.50;;
7929;SDS011;4010;42.698;23.124;2022-11-23T10:17:59;0.43;;;0.43;;
7929;SDS011;4010;42.698;23.124;2022-11-23T10:20:43;1.53;;;0.40;;
7929;SDS011;4010;42.698;23.124;2022-11-23T10:23:31;1.13;;;0.60;;
7929;SDS011;4010;42.698;23.124;2022-11-23T10:26:11;0.97;;;0.70;;
7929;SDS011;4010;42.698;23.124;2022-11-23T10:28:40;1.83;;;1.10;;
7929;SDS011;4010;42.698;23.124;2022-11-23T10:31:10;0.60;;;0.60;;
7929;SDS011;4010;42.698;23.124;2022-11-23T10:33:42;0.60;;;0.60;;
7929;SDS011;4010;42.698;23.124;2022-11-23T10:36:16;0.50;;;0.50;;
7929;SDS011;4010;42.698;23.124;2022-11-23T10:38:42;0.47;;;0.47;;
7929;SDS011;4010;42.698;23.124;2022-11-23T10:41:11;0.70;;;0.70;;
7929;SDS011;4010;42.698;23.124;2022-11-23T10:43:41;1.00;;;0.90;;
7929;SDS011;4010;42.698;23.124;2022-11-23T10:46:22;0.50;;;0.50;;
7929;SDS011;4010;42.698;23.124;2022-11-23T10:49:06;0.63;;;0.50;;
7929;SDS011;4010;42.698;23.124;2022-11-23T10:51:35;0.80;;;0.70;;
7929;SDS011;4010;42.698;23.124;2022-11-23T10:54:04;1.57;;;0.40;;
7929;SDS011;4010;42.698;23.124;2022-11-23T10:56:32;0.57;;;0.57;;
7929;SDS011;4010;42.698;23.124;2022-11-23T10:58:59;2.30;;;0.60;;
7929;SDS011;4010;42.698;23.124;2022-11-23T11:01:26;0.57;;;0.57;;
7929;SDS011;4010;42.698;23.124;2022-11-23T11:03:58;1.57;;;0.60;;
7929;SDS011;4010;42.698;23.124;2022-11-23T11:06:29;0.77;;;0.57;;
7929;SDS011;4010;42.698;23.124;2022-11-23T11:08:59;1.97;;;0.60;;
7929;SDS011;4010;42.698;23.124;2022-11-23T11:11:28;1.73;;;1.10;;
7929;SDS011;4010;42.698;23.124;2022-11-23T11:14:00;1.23;;;0.60;;
7929;SDS011;4010;42.698;23.124;2022-11-23T11:16:30;1.23;;;0.60;;
7929;SDS011;4010;42.698;23.124;2022-11-23T11:19:00;0.57;;;0.57;;
7929;SDS011;4010;42.698;23.124;2022-11-23T11:21:47;3.30;;;0.60;;
7929;SDS011;4010;42.698;23.124;2022-11-23T11:24:14;0.40;;;0.40;;
7929;SDS011;4010;42.698;23.124;2022-11-23T11:26:46;0.93;;;0.60;;
7929;SDS011;4010;42.698;23.124;2022-11-23T11:29:23;1.10;;;0.60;;
7929;SDS011;4010;42.698;23.124;2022-11-23T11:31:57;0.50;;;0.50;;
7929;SDS011;4010;42.698;23.124;2022-11-23T11:34:29;1.63;;;0.60;;
7929;SDS011;4010;42.698;23.124;2022-11-23T11:37:01;0.70;;;0.70;;
7929;SDS011;4010;42.698;23.124;2022-11-23T11:39:37;1.57;;;0.80;;
7929;SDS011;4010;42.698;23.124;2022-11-23T11:42:12;0.77;;;0.77;;
7929;SDS011;4010;42.698;23.124;2022-11-23T11:44:43;0.63;;;0.43;;
7929;SDS011;4010;42.698;23.124;2022-11-23T11:47:18;0.90;;;0.70;;
7929;SDS011;4010;42.698;23.124;2022-11-23T11:49:52;0.77;;;0.60;;
7929;SDS011;4010;42.698;23.124;2022-11-23T11:52:24;1.40;;;0.70;;
7929;SDS011;4010;42.698;23.124;2022-11-23T11:54:55;0.50;;;0.50;;
7929;SDS011;4010;42.698;23.124;2022-11-23T11:57:30;2.67;;;1.80;;
7929;SDS011;4010;42.698;23.124;2022-11-23T12:00:03;3.67;;;2.00;;
7929;SDS011;4010;42.698;23.124;2022-11-23T12:02:39;1.67;;;1.30;;
7929;SDS011;4010;42.698;23.124;2022-11-23T12:05:16;1.20;;;1.10;;
7929;SDS011;4010;42.698;23.124;2022-11-23T12:07:51;2.47;;;1.20;;
7929;SDS011;4010;42.698;23.124;2022-11-23T12:10:28;1.60;;;1.40;;
7929;SDS011;4010;42.698;23.124;2022-11-23T12:13:01;2.27;;;1.53;;
7929;SDS011;4010;42.698;23.124;2022-11-23T12:15:31;2.03;;;1.10;;
7929;SDS011;4010;42.698;23.124;2022-11-23T12:18:07;1.30;;;1.20;;
7929;SDS011;4010;42.698;23.124;2022-11-23T12:20:53;2.10;;;1.03;;
7929;SDS011;4010;42.698;23.124;2022-11-23T12:23:28;1.40;;;1.00;;
7929;SDS011;4010;42.698;23.124;2022-11-23T12:26:09;1.17;;;1.07;;
7929;SDS011;4010;42.698;23.124;2022-11-23T12:28:51;1.53;;;0.70;;
7929;SDS011;4010;42.698;23.124;2022-11-23T12:31:37;0.60;;;0.60;;
7929;SDS011;4010;42.698;23.124;2022-11-23T12:34:13;3.23;;;2.33;;
7929;SDS011;4010;42.698;23.124;2022-11-23T12:36:53;0.80;;;0.70;;
7929;SDS011;4010;42.698;23.124;2022-11-23T12:39:44;1.77;;;0.90;;
7929;SDS011;4010;42.698;23.124;2022-11-23T12:42:23;2.30;;;1.30;;
7929;SDS011;4010;42.698;23.124;2022-11-23T12:45:11;1.37;;;1.10;;
7929;SDS011;4010;42.698;23.124;2022-11-23T12:47:47;2.90;;;1.47;;
7929;SDS011;4010;42.698;23.124;2022-11-23T12:50:21;2.00;;;1.80;;
7929;SDS011;4010;42.698;23.124;2022-11-23T12:53:08;5.97;;;4.20;;
7929;SDS011;4010;42.698;23.124;2022-11-23T12:55:53;2.93;;;2.50;;
7929;SDS011;4010;42.698;23.124;2022-11-23T12:58:26;3.43;;;2.53;;
7929;SDS011;4010;42.698;23.124;2022-11-23T13:00:55;1.93;;;1.53;;
7929;SDS011;4010;42.698;23.124;2022-11-23T13:03:43;3.07;;;1.20;;
7929;SDS011;4010;42.698;23.124;2022-11-23T13:06:38;2.80;;;1.00;;
7929;SDS011;4010;42.698;23.124;2022-11-23T13:09:23;2.10;;;1.10;;
7929;SDS011;4010;42.698;23.124;2022-11-23T13:12:24;1.13;;;0.90;;
7929;SDS011;4010;42.698;23.124;2022-11-23T13:14:59;3.57;;;1.27;;
7929;SDS011;4010;42.698;23.124;2022-11-23T13:17:41;1.43;;;1.20;;
7929;SDS011;4010;42.698;23.124;2022-11-23T13:20:27;2.83;;;1.43;;
7929;SDS011;4010;42.698;23.124;2022-11-23T13:23:06;3.93;;;1.03;;
7929;SDS011;4010;42.698;23.124;2022-11-23T13:25:35;2.27;;;1.30;;
7929;SDS011;4010;42.698;23.124;2022-11-23T13:28:03;2.17;;;1.37;;
7929;SDS011;4010;42.698;23.124;2022-11-23T13:30:31;4.97;;;1.30;;
7929;SDS011;4010;42.698;23.124;2022-11-23T13:33:01;1.47;;;1.23;;
7929;SDS011;4010;42.698;23.124;2022-11-23T13:35:46;2.83;;;1.80;;
7929;SDS011;4010;42.698;23.124;2022-11-23T13:38:34;9.10;;;6.93;;
7929;SDS011;4010;42.698;23.124;2022-11-23T13:41:04;7.90;;;4.53;;
7929;SDS011;4010;42.698;23.124;2022-11-23T13:44:22;9.70;;;5.40;;
7929;SDS011;4010;42.698;23.124;2022-11-23T13:47:01;6.67;;;4.40;;
7929;SDS011;4010;42.698;23.124;2022-11-23T13:49:31;4.03;;;2.10;;
7929;SDS011;4010;42.698;23.124;2022-11-23T13:52:20;3.87;;;1.90;;
7929;SDS011;4010;42.698;23.124;2022-11-23T13:54:59;2.23;;;1.63;;
7929;SDS011;4010;42.698;23.124;2022-11-23T13:57:30;5.13;;;2.00;;
7929;SDS011;4010;42.698;23.124;2022-11-23T14:06:05;2.53;;;1.10;;
7929;SDS011;4010;42.698;23.124;2022-11-23T14:08:36;5.05;;;1.75;;
7929;SDS011;4010;42.698;23.124;2022-11-23T14:11:08;4.47;;;2.30;;
7929;SDS011;4010;42.698;23.124;2022-11-23T14:13:39;4.73;;;2.17;;
7929;SDS011;4010;42.698;23.124;2022-11-23T14:16:11;6.90;;;3.60;;
7929;SDS011;4010;42.698;23.124;2022-11-23T14:18:55;5.90;;;2.30;;
7929;SDS011;4010;42.698;23.124;2022-11-23T14:21:37;3.93;;;2.00;;
7929;SDS011;4010;42.698;23.124;2022-11-23T14:24:24;2.50;;;1.40;;
7929;SDS011;4010;42.698;23.124;2022-11-23T14:27:10;4.03;;;2.80;;
7929;SDS011;4010;42.698;23.124;2022-11-23T14:32:51;4.00;;;1.83;;
7929;SDS011;4010;42.698;23.124;2022-11-23T14:35:29;5.80;;;3.10;;
7929;SDS011;4010;42.698;23.124;2022-11-23T14:41:05;3.07;;;1.83;;
7929;SDS011;4010;42.698;23.124;2022-11-23T14:43:34;1.40;;;1.20;;
7929;SDS011;4010;42.698;23.124;2022-11-23T14:46:12;2.80;;;1.20;;
7929;SDS011;4010;42.698;23.124;2022-11-23T14:48:41;1.43;;;1.10;;
7929;SDS011;4010;42.698;23.124;2022-11-23T14:51:10;3.17;;;1.57;;
7929;SDS011;4010;42.698;23.124;2022-11-23T14:53:39;1.70;;;1.43;;
7929;SDS011;4010;42.698;23.124;2022-11-23T14:56:15;4.45;;;1.52;;
7929;SDS011;4010;42.698;23.124;2022-11-23T14:58:52;1.67;;;1.10;;
7929;SDS011;4010;42.698;23.124;2022-11-23T15:01:25;1.30;;;0.93;;
7929;SDS011;4010;42.698;23.124;2022-11-23T15:03:55;2.00;;;1.60;;
7929;SDS011;4010;42.698;23.124;2022-11-23T15:06:24;2.90;;;1.30;;
7929;SDS011;4010;42.698;23.124;2022-11-23T15:08:56;4.57;;;2.90;;
7929;SDS011;4010;42.698;23.124;2022-11-23T15:11:30;2.80;;;2.03;;
7929;SDS011;4010;42.698;23.124;2022-11-23T15:14:00;2.42;;;1.50;;
7929;SDS011;4010;42.698;23.124;2022-11-23T15:16:31;1.20;;;1.10;;
7929;SDS011;4010;42.698;23.124;2022-11-23T15:19:15;2.80;;;1.20;;
7929;SDS011;4010;42.698;23.124;2022-11-23T15:21:43;2.40;;;1.73;;
7929;SDS011;4010;42.698;23.124;2022-11-23T15:24:17;2.30;;;1.30;;
7929;SDS011;4010;42.698;23.124;2022-11-23T15:26:46;2.00;;;1.50;;
7929;SDS011;4010;42.698;23.124;2022-11-23T15:29:26;4.40;;;1.50;;
7929;SDS011;4010;42.698;23.124;2022-11-23T15:31:55;1.40;;;1.20;;
7929;SDS011;4010;42.698;23.124;2022-11-23T15:34:22;2.57;;;1.40;;
7929;SDS011;4010;42.698;23.124;2022-11-23T15:36:49;3.70;;;1.70;;
7929;SDS011;4010;42.698;23.124;2022-11-23T15:39:17;3.60;;;1.83;;
7929;SDS011;4010;42.698;23.124;2022-11-23T15:41:46;5.63;;;2.87;;
7929;SDS011;4010;42.698;23.124;2022-11-23T15:44:14;6.33;;;3.73;;
7929;SDS011;4010;42.698;23.124;2022-11-23T15:46:43;8.43;;;4.10;;
7929;SDS011;4010;42.698;23.124;2022-11-23T15:49:14;4.40;;;2.70;;
7929;SDS011;4010;42.698;23.124;2022-11-23T15:51:43;4.13;;;3.17;;
7929;SDS011;4010;42.698;23.124;2022-11-23T15:54:13;2.87;;;2.00;;
7929;SDS011;4010;42.698;23.124;2022-11-23T15:56:43;3.73;;;2.17;;
7929;SDS011;4010;42.698;23.124;2022-11-23T15:59:19;8.83;;;7.27;;
7929;SDS011;4010;42.698;23.124;2022-11-23T16:01:52;3.67;;;3.07;;
7929;SDS011;4010;42.698;23.124;2022-11-23T16:04:24;3.20;;;2.50;;
7929;SDS011;4010;42.698;23.124;2022-11-23T16:06:52;2.60;;;1.90;;
7929;SDS011;4010;42.698;23.124;2022-11-23T16:09:33;5.10;;;2.50;;
7929;SDS011;4010;42.698;23.124;2022-11-23T16:12:02;6.40;;;2.77;;
7929;SDS011;4010;42.698;23.124;2022-11-23T16:14:30;3.83;;;2.60;;
7929;SDS011;4010;42.698;23.124;2022-11-23T16:16:58;7.93;;;3.00;;
7929;SDS011;4010;42.698;23.124;2022-11-23T16:19:31;3.87;;;2.50;;
7929;SDS011;4010;42.698;23.124;2022-11-23T16:21:59;3.43;;;1.53;;
7929;SDS011;4010;42.698;23.124;2022-11-23T16:24:27;5.13;;;2.63;;
7929;SDS011;4010;42.698;23.124;2022-11-23T16:26:56;5.93;;;2.57;;
7929;SDS011;4010;42.698;23.124;2022-11-23T16:29:23;2.63;;;1.63;;
7929;SDS011;4010;42.698;23.124;2022-11-23T16:31:53;5.97;;;3.20;;
7929;SDS011;4010;42.698;23.124;2022-11-23T16:34:22;2.77;;;1.23;;
7929;SDS011;4010;42.698;23.124;2022-11-23T16:36:52;4.73;;;2.33;;
7929;SDS011;4010;42.698;23.124;2022-11-23T16:39:20;3.10;;;1.83;;
7929;SDS011;4010;42.698;23.124;2022-11-23T16:41:48;4.40;;;2.13;;
7929;SDS011;4010;42.698;23.124;2022-11-23T16:44:14;4.77;;;2.10;;
7929;SDS011;4010;42.698;23.124;2022-11-23T16:46:41;4.23;;;2.00;;
7929;SDS011;4010;42.698;23.124;2022-11-23T16:49:11;5.50;;;2.23;;
7929;SDS011;4010;42.698;23.124;2022-11-23T16:51:41;2.67;;;1.67;;
7929;SDS011;4010;42.698;23.124;2022-11-23T16:54:09;2.03;;;1.30;;
7929;SDS011;4010;42.698;23.124;2022-11-23T16:56:36;2.17;;;1.67;;
7929;SDS011;4010;42.698;23.124;2022-11-23T16:59:03;2.23;;;1.20;;
7929;SDS011;4010;42.698;23.124;2022-11-23T17:01:36;2.37;;;1.53;;
7929;SDS011;4010;42.698;23.124;2022-11-23T17:04:04;3.10;;;1.30;;
7929;SDS011;4010;42.698;23.124;2022-11-23T17:06:30;3.57;;;1.70;;
7929;SDS011;4010;42.698;23.124;2022-11-23T17:08:57;1.93;;;1.40;;
7929;SDS011;4010;42.698;23.124;2022-11-23T17:11:25;2.50;;;2.00;;
7929;SDS011;4010;42.698;23.124;2022-11-23T17:13:53;3.10;;;1.60;;
7929;SDS011;4010;42.698;23.124;2022-11-23T17:16:22;2.10;;;1.60;;
7929;SDS011;4010;42.698;23.124;2022-11-23T17:18:50;2.90;;;1.57;;
7929;SDS011;4010;42.698;23.124;2022-11-23T17:21:17;5.83;;;1.53;;
7929;SDS011;4010;42.698;23.124;2022-11-23T17:23:43;3.67;;;2.33;;
7929;SDS011;4010;42.698;23.124;2022-11-23T17:26:19;5.57;;;2.00;;
7929;SDS011;4010;42.698;23.124;2022-11-23T17:28:54;3.87;;;2.00;;
7929;SDS011;4010;42.698;23.124;2022-11-23T17:31:21;4.50;;;1.63;;
7929;SDS011;4010;42.698;23.124;2022-11-23T17:33:48;2.23;;;1.40;;
7929;SDS011;4010;42.698;23.124;2022-11-23T17:36:15;3.67;;;1.80;;
7929;SDS011;4010;42.698;23.124;2022-11-23T17:38:42;4.90;;;2.40;;
7929;SDS011;4010;42.698;23.124;2022-11-23T17:41:11;4.53;;;2.63;;
7929;SDS011;4010;42.698;23.124;2022-11-23T17:43:39;5.33;;;2.70;;
7929;SDS011;4010;42.698;23.124;2022-11-23T17:46:09;3.00;;;2.17;;
7929;SDS011;4010;42.698;23.124;2022-11-23T17:48:42;2.63;;;1.87;;
7929;SDS011;4010;42.698;23.124;2022-11-23T17:51:09;2.40;;;1.80;;
7929;SDS011;4010;42.698;23.124;2022-11-23T17:53:37;3.97;;;3.30;;
7929;SDS011;4010;42.698;23.124;2022-11-23T17:56:04;4.23;;;3.10;;
7929;SDS011;4010;42.698;23.124;2022-11-23T17:58:32;7.97;;;5.43;;
7929;SDS011;4010;42.698;23.124;2022-11-23T18:01:00;7.23;;;3.13;;
7929;SDS011;4010;42.698;23.124;2022-11-23T18:03:27;5.87;;;3.10;;
7929;SDS011;4010;42.698;23.124;2022-11-23T18:05:53;8.20;;;4.73;;
7929;SDS011;4010;42.698;23.124;2022-11-23T18:08:20;7.50;;;5.27;;
7929;SDS011;4010;42.698;23.124;2022-11-23T18:10:47;6.60;;;5.33;;
7929;SDS011;4010;42.698;23.124;2022-11-23T18:13:13;4.07;;;3.03;;
7929;SDS011;4010;42.698;23.124;2022-11-23T18:15:40;3.23;;;2.40;;
7929;SDS011;4010;42.698;23.124;2022-11-23T18:18:08;4.63;;;2.40;;
7929;SDS011;4010;42.698;23.124;2022-11-23T18:20:35;4.83;;;2.50;;
7929;SDS011;4010;42.698;23.124;2022-11-23T18:23:02;4.43;;;2.10;;
7929;SDS011;4010;42.698;23.124;2022-11-23T18:25:29;2.30;;;2.03;;
7929;SDS011;4010;42.698;23.124;2022-11-23T18:27:55;5.23;;;3.30;;
7929;SDS011;4010;42.698;23.124;2022-11-23T18:30:22;6.20;;;3.40;;
7929;SDS011;4010;42.698;23.124;2022-11-23T18:32:49;5.77;;;3.07;;
7929;SDS011;4010;42.698;23.124;2022-11-23T18:35:17;4.10;;;2.47;;
7929;SDS011;4010;42.698;23.124;2022-11-23T18:37:43;8.63;;;4.20;;
7929;SDS011;4010;42.698;23.124;2022-11-23T18:40:11;5.67;;;2.67;;
7929;SDS011;4010;42.698;23.124;2022-11-23T18:42:38;4.87;;;2.57;;
7929;SDS011;4010;42.698;23.124;2022-11-23T18:45:05;3.80;;;2.27;;
7929;SDS011;4010;42.698;23.124;2022-11-23T18:47:32;6.40;;;2.27;;
7929;SDS011;4010;42.698;23.124;2022-11-23T18:49:59;11.20;;;5.43;;
7929;SDS011;4010;42.698;23.124;2022-11-23T18:52:27;5.97;;;2.90;;
7929;SDS011;4010;42.698;23.124;2022-11-23T18:54:54;3.40;;;1.80;;
7929;SDS011;4010;42.698;23.124;2022-11-23T18:57:20;3.33;;;1.70;;
7929;SDS011;4010;42.698;23.124;2022-11-23T18:59:47;4.67;;;2.33;;
7929;SDS011;4010;42.698;23.124;2022-11-23T19:02:14;8.33;;;3.77;;
7929;SDS011;4010;42.698;23.124;2022-11-23T19:04:40;6.87;;;4.07;;
7929;SDS011;4010;42.698;23.124;2022-11-23T19:07:07;4.97;;;2.87;;
7929;SDS011;4010;42.698;23.124;2022-11-23T19:09:36;5.20;;;2.20;;
7929;SDS011;4010;42.698;23.124;2022-11-23T19:12:02;5.47;;;2.77;;
7929;SDS011;4010;42.698;23.124;2022-11-23T19:14:30;3.40;;;3.07;;
7929;SDS011;4010;42.698;23.124;2022-11-23T19:16:57;6.20;;;2.23;;
7929;SDS011;4010;42.698;23.124;2022-11-23T19:19:24;4.30;;;2.47;;
7929;SDS011;4010;42.698;23.124;2022-11-23T19:21:51;4.23;;;2.30;;
7929;SDS011;4010;42.698;23.124;2022-11-23T19:24:17;4.70;;;1.90;;
7929;SDS011;4010;42.698;23.124;2022-11-23T19:26:45;5.57;;;2.37;;
7929;SDS011;4010;42.698;23.124;2022-11-23T19:29:12;2.80;;;2.03;;
7929;SDS011;4010;42.698;23.124;2022-11-23T19:31:39;5.10;;;1.87;;
7929;SDS011;4010;42.698;23.124;2022-11-23T19:34:06;6.67;;;2.07;;
7929;SDS011;4010;42.698;23.124;2022-11-23T19:36:34;2.30;;;2.10;;
7929;SDS011;4010;42.698;23.124;2022-11-23T19:39:02;3.80;;;2.20;;
7929;SDS011;4010;42.698;23.124;2022-11-23T19:41:29;4.50;;;1.60;;
7929;SDS011;4010;42.698;23.124;2022-11-23T19:43:58;3.83;;;1.40;;
7929;SDS011;4010;42.698;23.124;2022-11-23T19:46:25;2.03;;;1.37;;
7929;SDS011;4010;42.698;23.124;2022-11-23T19:48:53;1.87;;;1.67;;
7929;SDS011;4010;42.698;23.124;2022-11-23T19:51:21;5.57;;;2.40;;
7929;SDS011;4010;42.698;23.124;2022-11-23T19:53:48;2.70;;;2.10;;
7929;SDS011;4010;42.698;23.124;2022-11-23T19:56:15;3.97;;;1.87;;
7929;SDS011;4010;42.698;23.124;2022-11-23T19:58:44;2.20;;;1.70;;
7929;SDS011;4010;42.698;23.124;2022-11-23T20:01:14;5.53;;;1.53;;
7929;SDS011;4010;42.698;23.124;2022-11-23T20:03:42;3.00;;;1.37;;
7929;SDS011;4010;42.698;23.124;2022-11-23T20:06:13;1.77;;;1.17;;
7929;SDS011;4010;42.698;23.124;2022-11-23T20:08:41;1.40;;;1.30;;
7929;SDS011;4010;42.698;23.124;2022-11-23T20:11:08;2.30;;;1.30;;
7929;SDS011;4010;42.698;23.124;2022-11-23T20:13:36;3.83;;;1.57;;
7929;SDS011;4010;42.698;23.124;2022-11-23T20:16:04;3.03;;;1.30;;
7929;SDS011;4010;42.698;23.124;2022-11-23T20:18:34;2.23;;;1.60;;
7929;SDS011;4010;42.698;23.124;2022-11-23T20:21:00;3.63;;;1.57;;
7929;SDS011;4010;42.698;23.124;2022-11-23T20:23:27;7.87;;;2.40;;
7929;SDS011;4010;42.698;23.124;2022-11-23T20:25:54;3.70;;;2.03;;
7929;SDS011;4010;42.698;23.124;2022-11-23T20:28:22;5.53;;;1.83;;
7929;SDS011;4010;42.698;23.124;2022-11-23T20:30:49;4.07;;;1.60;;
7929;SDS011;4010;42.698;23.124;2022-11-23T20:33:16;5.83;;;1.63;;
7929;SDS011;4010;42.698;23.124;2022-11-23T20:35:45;3.43;;;1.40;;
7929;SDS011;4010;42.698;23.124;2022-11-23T20:38:11;5.17;;;1.50;;
7929;SDS011;4010;42.698;23.124;2022-11-23T20:40:38;1.87;;;1.50;;
7929;SDS011;4010;42.698;23.124;2022-11-23T20:43:05;8.83;;;1.57;;
7929;SDS011;4010;42.698;23.124;2022-11-23T20:45:32;5.83;;;1.30;;
7929;SDS011;4010;42.698;23.124;2022-11-23T20:47:58;3.47;;;1.63;;
7929;SDS011;4010;42.698;23.124;2022-11-23T20:50:25;6.47;;;1.40;;
7929;SDS011;4010;42.698;23.124;2022-11-23T20:52:58;0.97;;;0.93;;
7929;SDS011;4010;42.698;23.124;2022-11-23T20:55:26;4.83;;;1.47;;
7929;SDS011;4010;42.698;23.124;2022-11-23T20:57:54;5.53;;;1.50;;
7929;SDS011;4010;42.698;23.124;2022-11-23T21:00:20;5.10;;;1.27;;
7929;SDS011;4010;42.698;23.124;2022-11-23T21:02:48;2.13;;;1.30;;
7929;SDS011;4010;42.698;23.124;2022-11-23T21:05:15;3.37;;;1.00;;
7929;SDS011;4010;42.698;23.124;2022-11-23T21:07:43;3.53;;;1.07;;
7929;SDS011;4010;42.698;23.124;2022-11-23T21:10:11;3.10;;;1.30;;
7929;SDS011;4010;42.698;23.124;2022-11-23T21:12:58;1.90;;;1.00;;
7929;SDS011;4010;42.698;23.124;2022-11-23T21:15:42;3.03;;;1.10;;
7929;SDS011;4010;42.698;23.124;2022-11-23T21:18:09;0.63;;;0.63;;
7929;SDS011;4010;42.698;23.124;2022-11-23T21:20:36;0.73;;;0.70;;
7929;SDS011;4010;42.698;23.124;2022-11-23T21:23:04;2.40;;;1.17;;
7929;SDS011;4010;42.698;23.124;2022-11-23T21:25:32;1.70;;;0.90;;
7929;SDS011;4010;42.698;23.124;2022-11-23T21:27:59;1.20;;;0.90;;
7929;SDS011;4010;42.698;23.124;2022-11-23T21:30:27;6.23;;;0.77;;
7929;SDS011;4010;42.698;23.124;2022-11-23T21:32:54;7.40;;;1.20;;
7929;SDS011;4010;42.698;23.124;2022-11-23T21:35:21;1.40;;;1.20;;
7929;SDS011;4010;42.698;23.124;2022-11-23T21:37:47;2.00;;;0.93;;
7929;SDS011;4010;42.698;23.124;2022-11-23T21:40:14;2.70;;;1.40;;
7929;SDS011;4010;42.698;23.124;2022-11-23T21:42:42;3.83;;;1.20;;